sensor_id;sensor_type;location;lat;lon;timestamp;temperature;humidity
63202;DHT22;49296;48.188;11.566;2022-11-30T00:01:32;5.16;75.64
63202;DHT22;49296;48.188;11.566;2022-11-30T00:04:00;5.08;75.87
63202;DHT22;49296;48.188;11.566;2022-11-30T00:06:27;5.04;76.02
63202;DHT22;49296;48.188;11.566;2022-11-30T00:08:54;5.05;76.06
63202;DHT22;49296;48.188;11.566;2022-11-30T00:11:21;4.98;76.22
63202;DHT22;49296;48.188;11.566;2022-11-30T00:13:48;4.95;76.32
63202;DHT22;49296;48.188;11.566;2022-11-30T00:16:15;4.99;76.16
63202;DHT22;49296;48.188;11.566;2022-11-30T00:18:42;4.94;76.44
63202;DHT22;49296;48.188;11.566;2022-11-30T00:21:11;4.94;76.61
63202;DHT22;49296;48.188;11.566;2022-11-30T00:23:38;4.92;76.56
63202;DHT22;49296;48.188;11.566;2022-11-30T00:26:06;4.97;76.29
63202;DHT22;49296;48.188;11.566;2022-11-30T00:28:33;4.91;76.27
63202;DHT22;49296;48.188;11.566;2022-11-30T00:31:00;4.95;76.18
63202;DHT22;49296;48.188;11.566;2022-11-30T00:33:27;5.02;76.13
63202;DHT22;49296;48.188;11.566;2022-11-30T00:35:54;5.04;75.83
63202;DHT22;49296;48.188;11.566;2022-11-30T00:38:22;5.02;75.78
63202;DHT22;49296;48.188;11.566;2022-11-30T00:40:49;5.02;75.97
63202;DHT22;49296;48.188;11.566;2022-11-30T00:43:15;5.04;75.86
63202;DHT22;49296;48.188;11.566;2022-11-30T00:45:42;5.01;76.02
63202;DHT22;49296;48.188;11.566;2022-11-30T00:48:08;5.09;75.94
63202;DHT22;49296;48.188;11.566;2022-11-30T00:50:35;5.02;76.15
63202;DHT22;49296;48.188;11.566;2022-11-30T00:53:02;5.02;76.27
63202;DHT22;49296;48.188;11.566;2022-11-30T00:55:30;5.02;76.42
63202;DHT22;49296;48.188;11.566;2022-11-30T00:57:57;5.09;76.03
63202;DHT22;49296;48.188;11.566;2022-11-30T01:00:24;5.07;75.86
63202;DHT22;49296;48.188;11.566;2022-11-30T01:02:52;5.11;75.92
63202;DHT22;49296;48.188;11.566;2022-11-30T01:05:18;5.09;76.01
63202;DHT22;49296;48.188;11.566;2022-11-30T01:07:45;5.05;75.81
63202;DHT22;49296;48.188;11.566;2022-11-30T01:10:11;5.09;76.11
63202;DHT22;49296;48.188;11.566;2022-11-30T01:12:39;5.12;76.05
63202;DHT22;49296;48.188;11.566;2022-11-30T01:15:06;5.09;76.11
63202;DHT22;49296;48.188;11.566;2022-11-30T01:17:33;5.04;76.14
63202;DHT22;49296;48.188;11.566;2022-11-30T01:20:00;5.16;75.98
63202;DHT22;49296;48.188;11.566;2022-11-30T01:22:26;5.21;75.49
63202;DHT22;49296;48.188;11.566;2022-11-30T01:24:54;5.18;75.42
63202;DHT22;49296;48.188;11.566;2022-11-30T01:27:20;5.14;75.79
63202;DHT22;49296;48.188;11.566;2022-11-30T01:29:48;5.07;75.72
63202;DHT22;49296;48.188;11.566;2022-11-30T01:32:15;5.09;75.58
63202;DHT22;49296;48.188;11.566;2022-11-30T01:34:41;5.08;75.51
63202;DHT22;49296;48.188;11.566;2022-11-30T01:37:08;5.05;75.48
63202;DHT22;49296;48.188;11.566;2022-11-30T01:39:34;5.05;75.64
63202;DHT22;49296;48.188;11.566;2022-11-30T01:42:01;5.09;75.49
63202;DHT22;49296;48.188;11.566;2022-11-30T01:44:47;5.12;75.64
63202;DHT22;49296;48.188;11.566;2022-11-30T01:47:16;5.11;75.63
63202;DHT22;49296;48.188;11.566;2022-11-30T01:49:44;5.14;75.37
63202;DHT22;49296;48.188;11.566;2022-11-30T01:52:12;5.09;75.23
63202;DHT22;49296;48.188;11.566;2022-11-30T01:54:40;5.09;75.48
63202;DHT22;49296;48.188;11.566;2022-11-30T01:57:08;5.07;75.33
63202;DHT22;49296;48.188;11.566;2022-11-30T01:59:36;5.01;75.62
63202;DHT22;49296;48.188;11.566;2022-11-30T02:02:03;5.02;75.74
63202;DHT22;49296;48.188;11.566;2022-11-30T02:04:32;5.08;75.64
63202;DHT22;49296;48.188;11.566;2022-11-30T02:07:00;5.05;75.22
63202;DHT22;49296;48.188;11.566;2022-11-30T02:09:27;5.15;75.08
63202;DHT22;49296;48.188;11.566;2022-11-30T02:11:54;5.15;75.44
63202;DHT22;49296;48.188;11.566;2022-11-30T02:14:27;5.18;75.31
63202;DHT22;49296;48.188;11.566;2022-11-30T02:16:58;5.19;75.61
63202;DHT22;49296;48.188;11.566;2022-11-30T02:19:41;5.26;74.88
63202;DHT22;49296;48.188;11.566;2022-11-30T02:22:16;5.19;74.83
63202;DHT22;49296;48.188;11.566;2022-11-30T02:24:48;5.12;74.77
63202;DHT22;49296;48.188;11.566;2022-11-30T02:27:19;5.07;74.99
63202;DHT22;49296;48.188;11.566;2022-11-30T02:29:51;5.18;74.87
63202;DHT22;49296;48.188;11.566;2022-11-30T02:32:20;5.22;74.51
63202;DHT22;49296;48.188;11.566;2022-11-30T02:34:48;5.19;74.82
63202;DHT22;49296;48.188;11.566;2022-11-30T02:37:15;5.30;74.70
63202;DHT22;49296;48.188;11.566;2022-11-30T02:39:42;5.38;74.66
63202;DHT22;49296;48.188;11.566;2022-11-30T02:42:09;5.33;74.60
63202;DHT22;49296;48.188;11.566;2022-11-30T02:44:36;5.33;74.42
63202;DHT22;49296;48.188;11.566;2022-11-30T02:47:10;5.38;74.38
63202;DHT22;49296;48.188;11.566;2022-11-30T02:49:40;5.26;74.58
63202;DHT22;49296;48.188;11.566;2022-11-30T02:52:07;5.25;74.63
63202;DHT22;49296;48.188;11.566;2022-11-30T02:54:35;5.21;74.85
63202;DHT22;49296;48.188;11.566;2022-11-30T02:57:02;5.12;74.93
63202;DHT22;49296;48.188;11.566;2022-11-30T02:59:28;5.09;74.87
63202;DHT22;49296;48.188;11.566;2022-11-30T03:01:55;5.09;75.03
63202;DHT22;49296;48.188;11.566;2022-11-30T03:04:23;5.14;75.00
63202;DHT22;49296;48.188;11.566;2022-11-30T03:06:49;5.12;75.14
63202;DHT22;49296;48.188;11.566;2022-11-30T03:09:16;5.16;75.09
63202;DHT22;49296;48.188;11.566;2022-11-30T03:11:42;5.21;75.05
63202;DHT22;49296;48.188;11.566;2022-11-30T03:14:09;5.23;75.30
63202;DHT22;49296;48.188;11.566;2022-11-30T03:16:35;5.22;75.39
63202;DHT22;49296;48.188;11.566;2022-11-30T03:19:02;5.26;75.46
63202;DHT22;49296;48.188;11.566;2022-11-30T03:21:31;5.23;75.66
63202;DHT22;49296;48.188;11.566;2022-11-30T03:23:57;5.09;75.87
63202;DHT22;49296;48.188;11.566;2022-11-30T03:26:24;5.02;75.31
63202;DHT22;49296;48.188;11.566;2022-11-30T03:28:50;4.94;75.64
63202;DHT22;49296;48.188;11.566;2022-11-30T03:31:17;5.01;74.81
63202;DHT22;49296;48.188;11.566;2022-11-30T03:33:43;5.04;74.63
63202;DHT22;49296;48.188;11.566;2022-11-30T03:36:10;5.16;74.24
63202;DHT22;49296;48.188;11.566;2022-11-30T03:38:38;5.12;74.47
63202;DHT22;49296;48.188;11.566;2022-11-30T03:41:05;5.07;74.05
63202;DHT22;49296;48.188;11.566;2022-11-30T03:43:32;4.99;74.05
63202;DHT22;49296;48.188;11.566;2022-11-30T03:45:59;5.01;73.84
63202;DHT22;49296;48.188;11.566;2022-11-30T03:48:26;4.89;73.95
63202;DHT22;49296;48.188;11.566;2022-11-30T03:50:52;4.84;73.84
63202;DHT22;49296;48.188;11.566;2022-11-30T03:53:20;4.85;74.21
63202;DHT22;49296;48.188;11.566;2022-11-30T03:55:51;4.73;74.56
63202;DHT22;49296;48.188;11.566;2022-11-30T03:58:19;4.76;74.90
63202;DHT22;49296;48.188;11.566;2022-11-30T04:00:46;4.85;74.21
63202;DHT22;49296;48.188;11.566;2022-11-30T04:03:12;4.84;73.80
63202;DHT22;49296;48.188;11.566;2022-11-30T04:05:39;4.80;74.09
63202;DHT22;49296;48.188;11.566;2022-11-30T04:08:05;4.88;73.91
63202;DHT22;49296;48.188;11.566;2022-11-30T04:10:32;4.89;73.81
63202;DHT22;49296;48.188;11.566;2022-11-30T04:13:00;4.94;73.67
63202;DHT22;49296;48.188;11.566;2022-11-30T04:15:26;4.95;73.62
63202;DHT22;49296;48.188;11.566;2022-11-30T04:17:53;5.05;73.52
63202;DHT22;49296;48.188;11.566;2022-11-30T04:20:19;4.83;74.11
63202;DHT22;49296;48.188;11.566;2022-11-30T04:22:46;4.81;73.74
63202;DHT22;49296;48.188;11.566;2022-11-30T04:25:12;4.87;73.79
63202;DHT22;49296;48.188;11.566;2022-11-30T04:27:39;4.91;73.75
63202;DHT22;49296;48.188;11.566;2022-11-30T04:30:07;4.85;74.02
63202;DHT22;49296;48.188;11.566;2022-11-30T04:32:34;4.92;74.10
63202;DHT22;49296;48.188;11.566;2022-11-30T04:35:01;4.94;73.83
63202;DHT22;49296;48.188;11.566;2022-11-30T04:37:27;4.64;74.60
63202;DHT22;49296;48.188;11.566;2022-11-30T04:39:54;4.89;74.65
63202;DHT22;49296;48.188;11.566;2022-11-30T04:42:20;4.98;73.74
63202;DHT22;49296;48.188;11.566;2022-11-30T04:44:47;5.01;73.76
63202;DHT22;49296;48.188;11.566;2022-11-30T04:47:15;4.99;73.51
63202;DHT22;49296;48.188;11.566;2022-11-30T04:49:41;4.95;73.60
63202;DHT22;49296;48.188;11.566;2022-11-30T04:52:11;4.95;73.95
63202;DHT22;49296;48.188;11.566;2022-11-30T04:54:37;4.85;74.42
63202;DHT22;49296;48.188;11.566;2022-11-30T04:57:04;4.91;74.44
63202;DHT22;49296;48.188;11.566;2022-11-30T04:59:30;5.01;73.96
63202;DHT22;49296;48.188;11.566;2022-11-30T05:01:57;4.94;74.17
63202;DHT22;49296;48.188;11.566;2022-11-30T05:04:25;4.73;74.98
63202;DHT22;49296;48.188;11.566;2022-11-30T05:06:51;4.94;74.60
63202;DHT22;49296;48.188;11.566;2022-11-30T05:09:18;4.67;75.53
63202;DHT22;49296;48.188;11.566;2022-11-30T05:11:44;4.73;75.28
63202;DHT22;49296;48.188;11.566;2022-11-30T05:14:12;4.66;75.00
63202;DHT22;49296;48.188;11.566;2022-11-30T05:16:39;4.76;75.00
63202;DHT22;49296;48.188;11.566;2022-11-30T05:19:05;4.91;74.56
63202;DHT22;49296;48.188;11.566;2022-11-30T05:21:33;4.87;74.47
63202;DHT22;49296;48.188;11.566;2022-11-30T05:24:00;4.89;74.44
63202;DHT22;49296;48.188;11.566;2022-11-30T05:26:26;5.08;73.60
63202;DHT22;49296;48.188;11.566;2022-11-30T05:28:53;5.15;73.08
63202;DHT22;49296;48.188;11.566;2022-11-30T05:31:19;5.09;72.69
63202;DHT22;49296;48.188;11.566;2022-11-30T05:33:48;5.08;72.37
63202;DHT22;49296;48.188;11.566;2022-11-30T05:36:15;5.05;72.29
63202;DHT22;49296;48.188;11.566;2022-11-30T05:38:43;5.07;72.61
63202;DHT22;49296;48.188;11.566;2022-11-30T05:41:09;5.16;72.71
63202;DHT22;49296;48.188;11.566;2022-11-30T05:43:36;5.14;72.39
63202;DHT22;49296;48.188;11.566;2022-11-30T05:46:03;5.19;72.10
63202;DHT22;49296;48.188;11.566;2022-11-30T05:48:30;5.19;72.22
63202;DHT22;49296;48.188;11.566;2022-11-30T05:51:03;5.19;72.20
63202;DHT22;49296;48.188;11.566;2022-11-30T05:53:29;5.26;72.02
63202;DHT22;49296;48.188;11.566;2022-11-30T05:56:04;5.25;71.92
63202;DHT22;49296;48.188;11.566;2022-11-30T05:58:31;5.23;72.80
63202;DHT22;49296;48.188;11.566;2022-11-30T06:00:58;5.18;72.92
63202;DHT22;49296;48.188;11.566;2022-11-30T06:03:27;5.26;73.09
63202;DHT22;49296;48.188;11.566;2022-11-30T06:05:54;5.21;72.95
63202;DHT22;49296;48.188;11.566;2022-11-30T06:08:21;5.33;72.68
63202;DHT22;49296;48.188;11.566;2022-11-30T06:10:48;5.30;72.72
63202;DHT22;49296;48.188;11.566;2022-11-30T06:13:16;5.36;72.71
63202;DHT22;49296;48.188;11.566;2022-11-30T06:15:43;5.32;72.65
63202;DHT22;49296;48.188;11.566;2022-11-30T06:18:11;5.30;72.53
63202;DHT22;49296;48.188;11.566;2022-11-30T06:20:37;5.25;72.51
63202;DHT22;49296;48.188;11.566;2022-11-30T06:23:04;5.15;72.85
63202;DHT22;49296;48.188;11.566;2022-11-30T06:25:31;5.19;72.58
63202;DHT22;49296;48.188;11.566;2022-11-30T06:27:57;5.15;73.01
63202;DHT22;49296;48.188;11.566;2022-11-30T06:30:25;5.01;73.31
63202;DHT22;49296;48.188;11.566;2022-11-30T06:32:52;5.16;73.21
63202;DHT22;49296;48.188;11.566;2022-11-30T06:35:18;5.16;73.03
63202;DHT22;49296;48.188;11.566;2022-11-30T06:37:45;5.08;73.53
63202;DHT22;49296;48.188;11.566;2022-11-30T06:40:12;5.23;72.88
63202;DHT22;49296;48.188;11.566;2022-11-30T06:42:38;5.22;72.24
63202;DHT22;49296;48.188;11.566;2022-11-30T06:45:05;5.25;72.18
63202;DHT22;49296;48.188;11.566;2022-11-30T06:47:33;5.15;72.45
63202;DHT22;49296;48.188;11.566;2022-11-30T06:50:00;5.21;72.08
63202;DHT22;49296;48.188;11.566;2022-11-30T06:52:28;5.23;72.22
63202;DHT22;49296;48.188;11.566;2022-11-30T06:54:55;5.26;73.95
63202;DHT22;49296;48.188;11.566;2022-11-30T06:57:24;5.26;73.22
63202;DHT22;49296;48.188;11.566;2022-11-30T06:59:51;5.29;72.47
63202;DHT22;49296;48.188;11.566;2022-11-30T07:02:17;5.36;73.20
63202;DHT22;49296;48.188;11.566;2022-11-30T07:04:45;5.32;72.28
63202;DHT22;49296;48.188;11.566;2022-11-30T07:07:12;5.35;72.25
63202;DHT22;49296;48.188;11.566;2022-11-30T07:09:39;5.33;72.62
63202;DHT22;49296;48.188;11.566;2022-11-30T07:12:06;5.22;73.27
63202;DHT22;49296;48.188;11.566;2022-11-30T07:14:32;5.25;73.44
63202;DHT22;49296;48.188;11.566;2022-11-30T07:16:59;5.30;73.33
63202;DHT22;49296;48.188;11.566;2022-11-30T07:19:28;5.33;72.96
63202;DHT22;49296;48.188;11.566;2022-11-30T07:21:56;5.36;73.29
63202;DHT22;49296;48.188;11.566;2022-11-30T07:24:23;5.49;72.73
63202;DHT22;49296;48.188;11.566;2022-11-30T07:27:06;5.44;72.61
63202;DHT22;49296;48.188;11.566;2022-11-30T07:29:34;5.49;72.36
63202;DHT22;49296;48.188;11.566;2022-11-30T07:32:00;5.46;72.85
63202;DHT22;49296;48.188;11.566;2022-11-30T07:34:27;5.43;73.03
63202;DHT22;49296;48.188;11.566;2022-11-30T07:36:53;5.47;72.67
63202;DHT22;49296;48.188;11.566;2022-11-30T07:39:21;5.46;72.57
63202;DHT22;49296;48.188;11.566;2022-11-30T07:41:48;5.35;72.70
63202;DHT22;49296;48.188;11.566;2022-11-30T07:44:15;5.29;72.93
63202;DHT22;49296;48.188;11.566;2022-11-30T07:46:41;5.18;72.78
63202;DHT22;49296;48.188;11.566;2022-11-30T07:49:08;5.22;73.19
63202;DHT22;49296;48.188;11.566;2022-11-30T07:51:35;5.19;73.25
63202;DHT22;49296;48.188;11.566;2022-11-30T07:54:02;5.18;73.12
63202;DHT22;49296;48.188;11.566;2022-11-30T07:56:31;5.16;73.03
63202;DHT22;49296;48.188;11.566;2022-11-30T07:58:58;5.18;72.88
63202;DHT22;49296;48.188;11.566;2022-11-30T08:01:26;5.15;72.96
63202;DHT22;49296;48.188;11.566;2022-11-30T08:03:53;5.15;73.28
63202;DHT22;49296;48.188;11.566;2022-11-30T08:06:20;5.22;73.14
63202;DHT22;49296;48.188;11.566;2022-11-30T08:08:48;5.22;73.02
63202;DHT22;49296;48.188;11.566;2022-11-30T08:11:16;5.32;73.07
63202;DHT22;49296;48.188;11.566;2022-11-30T08:13:50;5.44;73.10
63202;DHT22;49296;48.188;11.566;2022-11-30T08:16:20;5.33;74.05
63202;DHT22;49296;48.188;11.566;2022-11-30T08:18:50;5.47;73.79
63202;DHT22;49296;48.188;11.566;2022-11-30T08:21:19;5.44;72.66
63202;DHT22;49296;48.188;11.566;2022-11-30T08:23:46;5.50;72.63
63202;DHT22;49296;48.188;11.566;2022-11-30T08:26:14;5.40;72.45
63202;DHT22;49296;48.188;11.566;2022-11-30T08:28:41;5.46;72.24
63202;DHT22;49296;48.188;11.566;2022-11-30T08:31:10;5.38;73.31
63202;DHT22;49296;48.188;11.566;2022-11-30T08:33:38;5.47;73.01
63202;DHT22;49296;48.188;11.566;2022-11-30T08:36:05;5.57;72.49
63202;DHT22;49296;48.188;11.566;2022-11-30T08:38:31;5.54;72.47
63202;DHT22;49296;48.188;11.566;2022-11-30T08:40:58;5.53;72.03
63202;DHT22;49296;48.188;11.566;2022-11-30T08:43:26;5.61;72.71
63202;DHT22;49296;48.188;11.566;2022-11-30T08:45:52;5.64;72.51
63202;DHT22;49296;48.188;11.566;2022-11-30T08:48:20;5.57;72.66
63202;DHT22;49296;48.188;11.566;2022-11-30T08:50:47;5.46;72.71
63202;DHT22;49296;48.188;11.566;2022-11-30T08:53:13;5.44;72.60
63202;DHT22;49296;48.188;11.566;2022-11-30T08:55:40;5.43;73.09
63202;DHT22;49296;48.188;11.566;2022-11-30T08:58:06;5.46;73.12
63202;DHT22;49296;48.188;11.566;2022-11-30T09:00:33;5.50;72.74
63202;DHT22;49296;48.188;11.566;2022-11-30T09:03:00;5.42;72.96
63202;DHT22;49296;48.188;11.566;2022-11-30T09:05:27;5.39;72.90
63202;DHT22;49296;48.188;11.566;2022-11-30T09:07:54;5.47;72.81
63202;DHT22;49296;48.188;11.566;2022-11-30T09:10:21;5.47;72.76
63202;DHT22;49296;48.188;11.566;2022-11-30T09:12:47;5.51;72.87
63202;DHT22;49296;48.188;11.566;2022-11-30T09:15:14;5.56;72.84
63202;DHT22;49296;48.188;11.566;2022-11-30T09:17:41;5.57;71.87
63202;DHT22;49296;48.188;11.566;2022-11-30T09:20:08;5.66;71.66
63202;DHT22;49296;48.188;11.566;2022-11-30T09:22:36;5.61;71.69
63202;DHT22;49296;48.188;11.566;2022-11-30T09:25:03;5.64;71.94
63202;DHT22;49296;48.188;11.566;2022-11-30T09:27:30;5.60;71.40
63202;DHT22;49296;48.188;11.566;2022-11-30T09:29:57;5.57;71.70
63202;DHT22;49296;48.188;11.566;2022-11-30T09:32:23;5.58;72.55
63202;DHT22;49296;48.188;11.566;2022-11-30T09:34:50;5.78;71.84
63202;DHT22;49296;48.188;11.566;2022-11-30T09:37:16;5.78;71.09
63202;DHT22;49296;48.188;11.566;2022-11-30T09:39:44;5.81;71.09
63202;DHT22;49296;48.188;11.566;2022-11-30T09:45:00;5.83;70.49
63202;DHT22;49296;48.188;11.566;2022-11-30T09:47:34;5.61;71.50
63202;DHT22;49296;48.188;11.566;2022-11-30T09:50:03;5.73;70.57
63202;DHT22;49296;48.188;11.566;2022-11-30T09:52:35;5.56;71.81
63202;DHT22;49296;48.188;11.566;2022-11-30T09:55:06;5.67;71.49
63202;DHT22;49296;48.188;11.566;2022-11-30T09:57:33;5.57;71.73
63202;DHT22;49296;48.188;11.566;2022-11-30T10:00:04;5.51;71.64
63202;DHT22;49296;48.188;11.566;2022-11-30T10:02:32;5.28;71.77
63202;DHT22;49296;48.188;11.566;2022-11-30T10:04:59;5.47;71.92
63202;DHT22;49296;48.188;11.566;2022-11-30T10:07:31;5.68;71.27
63202;DHT22;49296;48.188;11.566;2022-11-30T10:10:01;5.60;70.27
63202;DHT22;49296;48.188;11.566;2022-11-30T10:12:33;5.44;71.10
63202;DHT22;49296;48.188;11.566;2022-11-30T10:15:06;5.43;70.99
63202;DHT22;49296;48.188;11.566;2022-11-30T10:17:36;5.23;70.99
63202;DHT22;49296;48.188;11.566;2022-11-30T10:20:15;5.29;71.18
63202;DHT22;49296;48.188;11.566;2022-11-30T10:22:48;5.32;70.96
63202;DHT22;49296;48.188;11.566;2022-11-30T10:25:18;5.40;71.02
63202;DHT22;49296;48.188;11.566;2022-11-30T10:27:49;5.43;70.67
63202;DHT22;49296;48.188;11.566;2022-11-30T10:30:17;5.40;70.24
63202;DHT22;49296;48.188;11.566;2022-11-30T10:32:46;5.51;70.37
63202;DHT22;49296;48.188;11.566;2022-11-30T10:35:16;5.70;70.25
63202;DHT22;49296;48.188;11.566;2022-11-30T10:37:43;5.70;69.40
63202;DHT22;49296;48.188;11.566;2022-11-30T10:40:11;5.81;68.73
63202;DHT22;49296;48.188;11.566;2022-11-30T10:42:39;5.70;68.94
63202;DHT22;49296;48.188;11.566;2022-11-30T10:45:11;5.81;68.05
63202;DHT22;49296;48.188;11.566;2022-11-30T10:47:39;5.85;67.96
63202;DHT22;49296;48.188;11.566;2022-11-30T10:50:08;5.97;67.59
63202;DHT22;49296;48.188;11.566;2022-11-30T10:52:40;5.94;67.66
63202;DHT22;49296;48.188;11.566;2022-11-30T10:55:11;5.88;67.64
63202;DHT22;49296;48.188;11.566;2022-11-30T10:57:38;5.75;68.03
63202;DHT22;49296;48.188;11.566;2022-11-30T11:00:12;5.91;67.35
63202;DHT22;49296;48.188;11.566;2022-11-30T11:02:41;6.02;66.14
63202;DHT22;49296;48.188;11.566;2022-11-30T11:05:19;6.16;66.63
63202;DHT22;49296;48.188;11.566;2022-11-30T11:07:48;6.16;66.34
63202;DHT22;49296;48.188;11.566;2022-11-30T11:10:15;5.92;67.08
63202;DHT22;49296;48.188;11.566;2022-11-30T11:12:45;5.83;66.96
63202;DHT22;49296;48.188;11.566;2022-11-30T11:15:16;5.88;66.77
63202;DHT22;49296;48.188;11.566;2022-11-30T11:17:43;5.88;66.76
63202;DHT22;49296;48.188;11.566;2022-11-30T11:20:25;5.81;67.20
63202;DHT22;49296;48.188;11.566;2022-11-30T11:22:52;5.88;66.83
63202;DHT22;49296;48.188;11.566;2022-11-30T11:25:19;5.95;66.13
63202;DHT22;49296;48.188;11.566;2022-11-30T11:27:49;5.97;66.35
63202;DHT22;49296;48.188;11.566;2022-11-30T11:30:27;6.06;66.93
63202;DHT22;49296;48.188;11.566;2022-11-30T11:32:58;5.95;68.17
63202;DHT22;49296;48.188;11.566;2022-11-30T11:35:32;5.95;67.74
63202;DHT22;49296;48.188;11.566;2022-11-30T11:37:59;5.57;68.50
63202;DHT22;49296;48.188;11.566;2022-11-30T11:40:26;5.53;68.89
63202;DHT22;49296;48.188;11.566;2022-11-30T11:42:53;5.53;68.94
63202;DHT22;49296;48.188;11.566;2022-11-30T11:45:24;5.75;68.40
63202;DHT22;49296;48.188;11.566;2022-11-30T11:47:56;5.94;68.27
63202;DHT22;49296;48.188;11.566;2022-11-30T11:50:24;5.78;68.85
63202;DHT22;49296;48.188;11.566;2022-11-30T11:53:05;5.73;68.40
63202;DHT22;49296;48.188;11.566;2022-11-30T11:55:32;5.75;68.42
63202;DHT22;49296;48.188;11.566;2022-11-30T11:57:59;5.87;68.16
63202;DHT22;49296;48.188;11.566;2022-11-30T12:00:29;5.74;68.81
63202;DHT22;49296;48.188;11.566;2022-11-30T12:02:57;5.58;69.04
63202;DHT22;49296;48.188;11.566;2022-11-30T12:05:26;5.74;68.40
63202;DHT22;49296;48.188;11.566;2022-11-30T12:07:57;5.66;69.98
63202;DHT22;49296;48.188;11.566;2022-11-30T12:10:26;5.81;68.40
63202;DHT22;49296;48.188;11.566;2022-11-30T12:12:55;5.81;68.09
63202;DHT22;49296;48.188;11.566;2022-11-30T12:15:25;5.79;67.65
63202;DHT22;49296;48.188;11.566;2022-11-30T12:17:57;5.97;67.55
63202;DHT22;49296;48.188;11.566;2022-11-30T12:20:27;6.02;66.84
63202;DHT22;49296;48.188;11.566;2022-11-30T12:23:02;5.94;66.86
63202;DHT22;49296;48.188;11.566;2022-11-30T12:25:32;5.97;66.79
63202;DHT22;49296;48.188;11.566;2022-11-30T12:28:05;6.05;66.49
63202;DHT22;49296;48.188;11.566;2022-11-30T12:30:40;5.92;66.53
63202;DHT22;49296;48.188;11.566;2022-11-30T12:33:12;5.91;67.13
63202;DHT22;49296;48.188;11.566;2022-11-30T12:35:54;5.95;67.01
63202;DHT22;49296;48.188;11.566;2022-11-30T12:38:25;5.92;67.49
63202;DHT22;49296;48.188;11.566;2022-11-30T12:40:59;5.97;67.82
63202;DHT22;49296;48.188;11.566;2022-11-30T12:43:30;5.99;67.77
63202;DHT22;49296;48.188;11.566;2022-11-30T12:46:02;5.64;68.86
63202;DHT22;49296;48.188;11.566;2022-11-30T12:48:34;5.77;68.94
63202;DHT22;49296;48.188;11.566;2022-11-30T12:51:06;5.63;69.32
63202;DHT22;49296;48.188;11.566;2022-11-30T12:53:36;5.77;68.97
63202;DHT22;49296;48.188;11.566;2022-11-30T12:56:07;5.84;68.98
63202;DHT22;49296;48.188;11.566;2022-11-30T12:58:39;5.87;69.26
63202;DHT22;49296;48.188;11.566;2022-11-30T13:01:13;5.91;69.18
63202;DHT22;49296;48.188;11.566;2022-11-30T13:03:46;5.98;69.05
63202;DHT22;49296;48.188;11.566;2022-11-30T13:06:17;6.01;68.88
63202;DHT22;49296;48.188;11.566;2022-11-30T13:08:48;6.09;68.67
63202;DHT22;49296;48.188;11.566;2022-11-30T13:11:17;6.05;68.06
63202;DHT22;49296;48.188;11.566;2022-11-30T13:13:48;5.92;67.74
63202;DHT22;49296;48.188;11.566;2022-11-30T13:16:15;5.97;67.80
63202;DHT22;49296;48.188;11.566;2022-11-30T13:18:43;5.98;68.03
63202;DHT22;49296;48.188;11.566;2022-11-30T13:21:12;5.87;68.31
63202;DHT22;49296;48.188;11.566;2022-11-30T13:23:43;5.92;68.41
63202;DHT22;49296;48.188;11.566;2022-11-30T13:26:15;6.02;68.45
63202;DHT22;49296;48.188;11.566;2022-11-30T13:28:53;6.09;67.46
63202;DHT22;49296;48.188;11.566;2022-11-30T13:31:23;6.12;67.06
63202;DHT22;49296;48.188;11.566;2022-11-30T13:33:55;6.01;67.31
63202;DHT22;49296;48.188;11.566;2022-11-30T13:36:28;6.02;67.34
63202;DHT22;49296;48.188;11.566;2022-11-30T13:41:50;5.94;68.12
63202;DHT22;49296;48.188;11.566;2022-11-30T13:44:21;5.99;68.06
63202;DHT22;49296;48.188;11.566;2022-11-30T13:46:48;5.99;68.02
63202;DHT22;49296;48.188;11.566;2022-11-30T13:49:17;5.95;67.98
63202;DHT22;49296;48.188;11.566;2022-11-30T13:51:46;5.85;68.64
63202;DHT22;49296;48.188;11.566;2022-11-30T13:56:58;5.68;69.34
63202;DHT22;49296;48.188;11.566;2022-11-30T13:59:32;5.63;69.85
63202;DHT22;49296;48.188;11.566;2022-11-30T14:04:45;5.90;68.31
63202;DHT22;49296;48.188;11.566;2022-11-30T14:09:58;6.01;68.38
63202;DHT22;49296;48.188;11.566;2022-11-30T14:12:44;5.95;68.82
63202;DHT22;49296;48.188;11.566;2022-11-30T14:18:15;5.57;69.00
63202;DHT22;49296;48.188;11.566;2022-11-30T14:20:42;5.33;70.48
63202;DHT22;49296;48.188;11.566;2022-11-30T14:23:11;5.50;70.68
63202;DHT22;49296;48.188;11.566;2022-11-30T14:25:40;5.56;70.50
63202;DHT22;49296;48.188;11.566;2022-11-30T14:28:09;5.57;70.92
63202;DHT22;49296;48.188;11.566;2022-11-30T14:30:40;5.60;71.07
63202;DHT22;49296;48.188;11.566;2022-11-30T14:33:10;5.67;71.24
63202;DHT22;49296;48.188;11.566;2022-11-30T14:35:38;5.51;71.41
63202;DHT22;49296;48.188;11.566;2022-11-30T14:38:13;5.71;70.66
63202;DHT22;49296;48.188;11.566;2022-11-30T14:40:49;5.61;70.86
63202;DHT22;49296;48.188;11.566;2022-11-30T14:43:16;5.66;71.25
63202;DHT22;49296;48.188;11.566;2022-11-30T14:45:43;5.63;70.58
63202;DHT22;49296;48.188;11.566;2022-11-30T14:48:21;5.61;70.45
63202;DHT22;49296;48.188;11.566;2022-11-30T14:50:48;5.64;70.49
63202;DHT22;49296;48.188;11.566;2022-11-30T14:53:19;5.51;70.65
63202;DHT22;49296;48.188;11.566;2022-11-30T14:55:50;5.40;70.56
63202;DHT22;49296;48.188;11.566;2022-11-30T14:58:20;5.50;70.86
63202;DHT22;49296;48.188;11.566;2022-11-30T15:00:47;5.53;70.69
63202;DHT22;49296;48.188;11.566;2022-11-30T15:03:16;5.47;70.85
63202;DHT22;49296;48.188;11.566;2022-11-30T15:05:43;5.42;71.41
63202;DHT22;49296;48.188;11.566;2022-11-30T15:08:10;5.28;71.63
63202;DHT22;49296;48.188;11.566;2022-11-30T15:10:38;5.22;71.69
63202;DHT22;49296;48.188;11.566;2022-11-30T15:13:06;5.35;70.89
63202;DHT22;49296;48.188;11.566;2022-11-30T15:15:38;5.23;71.25
63202;DHT22;49296;48.188;11.566;2022-11-30T15:18:15;5.43;70.56
63202;DHT22;49296;48.188;11.566;2022-11-30T15:20:43;5.40;70.95
63202;DHT22;49296;48.188;11.566;2022-11-30T15:23:11;5.26;71.64
63202;DHT22;49296;48.188;11.566;2022-11-30T15:25:38;5.16;71.90
63202;DHT22;49296;48.188;11.566;2022-11-30T15:28:08;5.01;71.96
63202;DHT22;49296;48.188;11.566;2022-11-30T15:30:37;5.01;71.84
63202;DHT22;49296;48.188;11.566;2022-11-30T15:33:04;4.99;71.78
63202;DHT22;49296;48.188;11.566;2022-11-30T15:35:30;4.92;71.87
63202;DHT22;49296;48.188;11.566;2022-11-30T15:37:57;5.05;71.71
63202;DHT22;49296;48.188;11.566;2022-11-30T15:40:30;5.21;71.14
63202;DHT22;49296;48.188;11.566;2022-11-30T15:42:58;5.28;71.40
63202;DHT22;49296;48.188;11.566;2022-11-30T15:45:27;5.25;70.80
63202;DHT22;49296;48.188;11.566;2022-11-30T15:47:54;5.21;71.18
63202;DHT22;49296;48.188;11.566;2022-11-30T15:50:31;5.23;71.15
63202;DHT22;49296;48.188;11.566;2022-11-30T15:53:00;5.19;70.89
63202;DHT22;49296;48.188;11.566;2022-11-30T15:55:40;5.19;71.09